createdAt,value
2023-05-21T00:02:30.126Z,7.73
2023-05-21T00:04:58.165Z,8.03
2023-05-21T00:07:26.098Z,7.73
2023-05-21T00:09:54.063Z,7.43
2023-05-21T00:12:21.979Z,7.60
2023-05-21T00:14:49.860Z,7.87
2023-05-21T00:17:18.057Z,7.23
2023-05-21T00:19:47.773Z,7.67
2023-05-21T00:22:16.022Z,7.80
2023-05-21T00:24:45.478Z,7.50
2023-05-21T00:27:13.452Z,7.87
2023-05-21T00:29:42.925Z,7.50
2023-05-21T00:32:12.115Z,7.90
2023-05-21T00:34:40.764Z,7.63
2023-05-21T00:37:10.829Z,7.80
2023-05-21T00:39:38.741Z,7.53
2023-05-21T00:42:06.751Z,7.60
2023-05-21T00:44:35.454Z,7.63
2023-05-21T00:47:03.415Z,7.73
2023-05-21T00:49:31.364Z,7.80
2023-05-21T00:52:01.476Z,7.13
2023-05-21T00:54:31.309Z,7.60
2023-05-21T00:56:59.177Z,7.87
2023-05-21T00:59:27.033Z,7.23
2023-05-21T01:01:56.400Z,7.73
2023-05-21T01:04:24.408Z,7.70
2023-05-21T01:06:53.523Z,7.27
2023-05-21T01:09:21.555Z,7.27
2023-05-21T01:11:51.539Z,6.90
2023-05-21T01:14:19.800Z,6.93
2023-05-21T01:16:49.357Z,6.80
2023-05-21T01:19:18.182Z,6.57
2023-05-21T01:21:47.192Z,6.80
2023-05-21T01:24:16.766Z,6.60
2023-05-21T01:26:46.601Z,7.57
2023-05-21T01:29:14.710Z,6.97
2023-05-21T01:31:55.613Z,7.03
2023-05-21T01:34:25.438Z,6.47
2023-05-21T01:36:57.043Z,6.77
2023-05-21T01:39:28.275Z,6.97
2023-05-21T01:41:56.264Z,6.30
2023-05-21T01:44:25.366Z,6.20
2023-05-21T01:46:53.955Z,6.13
2023-05-21T01:49:22.153Z,6.13
2023-05-21T01:51:50.159Z,6.57
2023-05-21T01:54:18.034Z,6.27
2023-05-21T01:56:47.964Z,6.03
2023-05-21T01:59:17.243Z,6.23
2023-05-21T02:01:45.183Z,6.30
2023-05-21T02:04:13.193Z,6.00
2023-05-21T02:06:41.848Z,6.40
2023-05-21T02:09:09.864Z,6.37
2023-05-21T02:11:37.764Z,6.00
2023-05-21T02:14:08.034Z,6.10
2023-05-21T02:16:35.985Z,5.70
2023-05-21T02:19:04.807Z,5.70
2023-05-21T02:21:32.752Z,6.40
2023-05-21T02:24:00.681Z,6.20
2023-05-21T02:26:29.025Z,5.53
2023-05-21T02:28:56.960Z,6.03
2023-05-21T02:31:26.296Z,6.10
2023-05-21T02:33:54.270Z,5.43
2023-05-21T02:36:22.174Z,6.40
2023-05-21T02:38:50.100Z,5.90
2023-05-21T02:41:18.012Z,6.90
2023-05-21T02:43:45.959Z,6.00
2023-05-21T02:46:13.901Z,5.83
2023-05-21T02:48:43.203Z,5.70
2023-05-21T02:51:11.525Z,6.10
2023-05-21T02:53:40.193Z,6.27
2023-05-21T02:56:08.492Z,6.10
2023-05-21T02:58:36.423Z,6.10
2023-05-21T03:01:04.367Z,6.00
2023-05-21T03:03:32.457Z,6.63
2023-05-21T03:06:01.915Z,5.67
2023-05-21T03:08:29.798Z,5.43
2023-05-21T03:10:57.820Z,5.57
2023-05-21T03:13:25.906Z,6.17
2023-05-21T03:15:56.528Z,5.77
2023-05-21T03:18:24.455Z,5.53
2023-05-21T03:20:52.326Z,6.13
2023-05-21T03:23:21.553Z,6.13
2023-05-21T03:25:50.878Z,5.53
2023-05-21T03:28:19.794Z,5.87
2023-05-21T03:30:49.761Z,5.67
2023-05-21T03:33:17.716Z,5.90
2023-05-21T03:35:45.839Z,5.67
2023-05-21T03:38:13.876Z,6.10
2023-05-21T03:40:43.251Z,5.87
2023-05-21T03:43:11.157Z,5.47
2023-05-21T03:45:39.890Z,5.60
2023-05-21T03:48:09.498Z,6.00
2023-05-21T03:50:37.599Z,5.97
2023-05-21T03:53:05.545Z,5.73
2023-05-21T03:55:33.551Z,5.50
2023-05-21T03:58:03.407Z,5.73
2023-05-21T04:00:32.642Z,5.67
2023-05-21T04:03:00.754Z,5.60
2023-05-21T04:05:28.750Z,5.60
2023-05-21T04:07:58.773Z,5.27
2023-05-21T04:10:27.033Z,5.77
2023-05-21T04:12:54.976Z,5.67
2023-05-21T04:15:24.544Z,5.40
2023-05-21T04:17:52.609Z,4.93
2023-05-21T04:20:20.639Z,5.33
2023-05-21T04:22:48.523Z,5.70
2023-05-21T04:25:16.485Z,5.53
2023-05-21T04:27:47.821Z,5.03
2023-05-21T04:30:15.835Z,5.60
2023-05-21T04:32:48.256Z,5.03
2023-05-21T04:35:16.338Z,5.17
2023-05-21T04:37:45.951Z,5.13
2023-05-21T04:40:18.190Z,5.27
2023-05-21T04:42:46.706Z,4.97
2023-05-21T04:45:14.757Z,4.97
2023-05-21T04:47:46.201Z,5.90
2023-05-21T04:50:14.093Z,5.17
2023-05-21T04:52:42.208Z,5.00
2023-05-21T04:55:10.426Z,5.17
2023-05-21T04:57:38.486Z,4.90
2023-05-21T05:00:08.669Z,5.27
2023-05-21T05:02:36.767Z,4.90
2023-05-21T05:05:06.820Z,4.60
2023-05-21T05:07:34.725Z,4.47
2023-05-21T05:10:02.635Z,4.77
2023-05-21T05:12:30.504Z,4.97
2023-05-21T05:14:58.382Z,4.87
2023-05-21T05:17:26.342Z,4.57
2023-05-21T05:19:54.288Z,4.70
2023-05-21T05:22:23.672Z,4.43
2023-05-21T05:24:51.589Z,4.60
2023-05-21T05:27:19.555Z,4.03
2023-05-21T05:29:47.925Z,4.83
2023-05-21T05:32:15.932Z,4.23
2023-05-21T05:34:44.064Z,5.13
2023-05-21T05:37:11.960Z,4.47
2023-05-21T05:39:41.219Z,4.77
2023-05-21T05:42:09.084Z,4.50
2023-05-21T05:44:37.019Z,4.37
2023-05-21T05:47:09.227Z,4.20
2023-05-21T05:49:37.129Z,4.13
2023-05-21T05:52:05.759Z,4.20
2023-05-21T05:54:33.631Z,4.33
2023-05-21T05:57:02.903Z,3.90
2023-05-21T05:59:30.865Z,4.40
2023-05-21T06:01:58.833Z,4.40
2023-05-21T06:04:29.946Z,3.90
2023-05-21T06:06:58.580Z,4.20
2023-05-21T06:09:26.540Z,4.13
2023-05-21T06:11:54.524Z,3.50
2023-05-21T06:14:23.808Z,3.80
2023-05-21T06:16:51.701Z,3.83
2023-05-21T06:19:20.164Z,3.87
2023-05-21T06:21:48.561Z,4.20
2023-05-21T06:24:16.676Z,4.00
2023-05-21T06:26:44.596Z,3.90
2023-05-21T06:29:14.856Z,3.80
2023-05-21T06:31:44.847Z,4.50
2023-05-21T06:34:12.930Z,3.77
2023-05-21T06:36:41.184Z,3.90
2023-05-21T06:39:09.107Z,3.87
2023-05-21T06:41:38.157Z,3.60
2023-05-21T06:44:06.512Z,3.63
2023-05-21T06:46:35.534Z,3.90
2023-05-21T06:49:07.061Z,3.93
2023-05-21T06:51:35.066Z,3.33
2023-05-21T06:54:03.107Z,3.50
2023-05-21T06:56:31.069Z,3.50
2023-05-21T06:58:59.406Z,3.73
2023-05-21T07:01:27.699Z,3.40
2023-05-21T07:03:55.768Z,3.40
2023-05-21T07:06:25.093Z,3.30
2023-05-21T07:08:53.051Z,2.80
2023-05-21T07:11:21.557Z,2.83
2023-05-21T07:13:49.485Z,2.60
2023-05-21T07:16:18.019Z,3.20
2023-05-21T07:18:46.114Z,2.77
2023-05-21T07:21:14.065Z,2.50
2023-05-21T07:23:43.304Z,2.90
2023-05-21T07:26:11.416Z,2.50
2023-05-21T07:28:39.350Z,2.60
2023-05-21T07:31:08.454Z,2.60
2023-05-21T07:33:36.489Z,2.67
2023-05-21T07:36:04.673Z,2.37
2023-05-21T07:38:32.621Z,2.33
2023-05-21T07:41:01.959Z,2.40
2023-05-21T07:43:30.042Z,2.27
2023-05-21T07:45:57.923Z,2.17
2023-05-21T07:48:27.015Z,2.10
2023-05-21T07:50:56.540Z,2.17
2023-05-21T07:53:24.480Z,2.27
2023-05-21T07:55:52.472Z,2.00
2023-05-21T07:58:21.798Z,2.07
2023-05-21T08:00:51.198Z,2.03
2023-05-21T08:03:19.718Z,1.70
2023-05-21T08:05:49.463Z,1.80
2023-05-21T08:08:17.451Z,1.47
2023-05-21T08:10:45.456Z,1.83
2023-05-21T08:13:13.418Z,1.83
2023-05-21T08:15:42.848Z,1.77
2023-05-21T08:18:12.034Z,1.80
2023-05-21T08:20:40.068Z,1.67
2023-05-21T08:23:08.009Z,1.70
2023-05-21T08:25:36.169Z,1.90
2023-05-21T08:28:04.472Z,1.93
2023-05-21T08:30:32.351Z,2.10
2023-05-21T08:33:02.366Z,1.83
2023-05-21T08:35:30.485Z,1.70
2023-05-21T08:37:58.816Z,1.80
2023-05-21T08:40:26.817Z,2.10
2023-05-21T08:42:54.878Z,1.87
2023-05-21T08:45:23.443Z,1.90
2023-05-21T08:47:56.053Z,2.00
2023-05-21T08:50:27.210Z,1.90
2023-05-21T08:52:57.716Z,1.70
2023-05-21T08:55:26.961Z,1.90
2023-05-21T08:57:55.174Z,1.83
2023-05-21T09:00:24.302Z,2.07
2023-05-21T09:02:54.527Z,1.73
2023-05-21T09:05:22.831Z,1.97
2023-05-21T09:08:03.497Z,1.83
2023-05-21T09:10:35.287Z,1.80
2023-05-21T09:13:03.228Z,1.80
2023-05-21T09:15:31.569Z,2.00
2023-05-21T09:17:59.584Z,1.90
2023-05-21T09:20:27.826Z,1.90
2023-05-21T09:22:57.326Z,1.77
2023-05-21T09:25:28.170Z,2.00
2023-05-21T09:27:56.629Z,2.00
2023-05-21T09:30:34.835Z,1.80
2023-05-21T09:33:04.059Z,2.17
2023-05-21T09:35:32.014Z,1.80
2023-05-21T09:38:01.947Z,1.93
2023-05-21T09:40:29.873Z,2.00
2023-05-21T09:42:57.807Z,2.10
2023-05-21T09:45:26.220Z,2.00
2023-05-21T09:47:54.812Z,2.17
2023-05-21T09:50:23.300Z,1.87
2023-05-21T09:52:53.104Z,2.50
2023-05-21T09:55:24.016Z,2.30
2023-05-21T09:57:52.145Z,2.27
2023-05-21T10:00:21.340Z,2.23
2023-05-21T10:02:49.673Z,2.20
2023-05-21T10:05:18.427Z,2.10
2023-05-21T10:07:48.656Z,2.23
2023-05-21T10:10:17.079Z,2.10
2023-05-21T10:12:47.719Z,2.20
2023-05-21T10:15:17.454Z,1.70
2023-05-21T10:17:46.251Z,1.93
2023-05-21T10:20:14.599Z,1.77
2023-05-21T10:22:42.550Z,2.23
2023-05-21T10:25:10.596Z,2.13
2023-05-21T10:27:38.509Z,1.90
2023-05-21T10:30:08.708Z,1.70
2023-05-21T10:32:36.977Z,1.60
2023-05-21T10:35:05.857Z,1.73
2023-05-21T10:37:33.809Z,1.80
2023-05-21T10:40:02.281Z,1.80
2023-05-21T10:43:15.262Z,2.20
2023-05-21T10:45:55.198Z,1.50
2023-05-21T10:48:34.494Z,1.50
2023-05-21T10:51:29.110Z,1.80
2023-05-21T10:54:18.360Z,1.57
2023-05-21T10:56:48.336Z,1.60
2023-05-21T10:59:23.158Z,1.80
2023-05-21T11:01:53.708Z,1.60
2023-05-21T11:04:26.652Z,1.55
2023-05-21T11:06:54.961Z,1.60
2023-05-21T11:09:23.122Z,1.77
2023-05-21T11:11:52.427Z,1.80
2023-05-21T11:14:32.004Z,2.10
2023-05-21T11:17:02.087Z,1.80
2023-05-21T11:19:39.664Z,1.83
2023-05-21T11:22:11.922Z,1.77
2023-05-21T11:24:41.363Z,1.70
2023-05-21T11:27:09.852Z,1.80
2023-05-21T11:29:42.118Z,1.67
2023-05-21T11:32:12.361Z,1.90
2023-05-21T11:34:42.052Z,1.77
2023-05-21T11:37:46.136Z,1.90
2023-05-21T11:40:30.935Z,1.88
2023-05-21T11:42:58.967Z,1.80
2023-05-21T11:45:31.013Z,2.10
2023-05-21T11:48:00.685Z,2.40
2023-05-21T11:50:30.689Z,1.95
2023-05-21T11:52:59.893Z,2.10
2023-05-21T11:55:27.939Z,1.80
2023-05-21T11:57:56.521Z,2.13
2023-05-21T12:00:24.640Z,1.70
2023-05-21T12:02:53.453Z,1.83
2023-05-21T12:05:23.685Z,1.80
2023-05-21T12:07:51.630Z,2.10
2023-05-21T12:10:22.585Z,2.13
2023-05-21T12:12:55.529Z,1.85
2023-05-21T12:15:26.036Z,1.77
2023-05-21T12:17:54.295Z,1.90
2023-05-21T12:20:23.898Z,1.63
2023-05-21T12:22:52.057Z,1.80
2023-05-21T12:25:21.206Z,1.88
2023-05-21T12:27:50.290Z,1.60
2023-05-21T12:30:18.251Z,1.88
2023-05-21T12:32:46.162Z,1.60
2023-05-21T12:35:23.965Z,1.70
2023-05-21T12:37:52.705Z,1.80
2023-05-21T12:40:21.053Z,2.30
2023-05-21T12:42:49.481Z,1.80
2023-05-21T12:45:18.790Z,2.83
2023-05-21T12:47:49.906Z,1.63
2023-05-21T12:50:18.102Z,1.85
2023-05-21T12:52:47.404Z,1.80
2023-05-21T12:55:16.750Z,1.73
2023-05-21T12:57:44.846Z,1.70
2023-05-21T13:00:14.395Z,1.88
2023-05-21T13:02:43.549Z,1.73
2023-05-21T13:05:17.451Z,1.63
2023-05-21T13:07:47.597Z,1.63
2023-05-21T13:10:17.677Z,1.55
2023-05-21T13:12:46.119Z,1.60
2023-05-21T13:15:14.431Z,1.48
2023-05-21T13:17:42.579Z,1.70
2023-05-21T13:20:12.524Z,1.70
2023-05-21T13:22:42.591Z,1.95
2023-05-21T13:25:11.184Z,2.17
2023-05-21T13:27:41.927Z,1.80
2023-05-21T13:30:11.779Z,2.38
2023-05-21T13:32:40.797Z,1.92
2023-05-21T13:35:10.163Z,2.10
2023-05-21T13:37:38.156Z,1.65
2023-05-21T13:40:07.351Z,1.70
2023-05-21T13:42:35.563Z,1.90
2023-05-21T13:45:05.380Z,2.00
2023-05-21T13:47:33.594Z,2.20
2023-05-21T13:50:01.640Z,2.00
2023-05-21T13:52:29.838Z,1.92
2023-05-21T13:54:57.711Z,2.13
2023-05-21T13:57:26.860Z,1.90
2023-05-21T13:59:54.818Z,1.73
2023-05-21T14:02:24.301Z,1.98
2023-05-21T14:04:52.370Z,1.90
2023-05-21T14:07:20.340Z,2.05
2023-05-21T14:09:48.724Z,2.08
2023-05-21T14:12:16.994Z,2.00
2023-05-21T14:14:45.057Z,2.10
2023-05-21T14:17:13.046Z,1.90
2023-05-21T14:19:42.501Z,2.10
2023-05-21T14:22:10.437Z,1.88
2023-05-21T14:24:38.343Z,2.08
2023-05-21T14:27:06.661Z,2.00
2023-05-21T14:29:34.640Z,1.90
2023-05-21T14:32:02.707Z,2.00
2023-05-21T14:34:30.753Z,2.10
2023-05-21T14:37:00.510Z,1.75
2023-05-21T14:39:28.605Z,2.50
2023-05-21T14:41:56.584Z,2.15
2023-05-21T14:44:24.828Z,1.88
2023-05-21T14:46:52.837Z,2.10
2023-05-21T14:49:20.832Z,2.05
2023-05-21T14:51:49.443Z,2.05
2023-05-21T14:54:18.791Z,2.10
2023-05-21T14:56:46.734Z,1.95
2023-05-21T14:59:14.654Z,1.90
2023-05-21T15:01:42.737Z,2.08
2023-05-21T15:04:11.158Z,2.00
2023-05-21T15:06:39.224Z,2.00
2023-05-21T15:09:07.169Z,2.05
2023-05-21T15:11:36.463Z,1.90
2023-05-21T15:14:04.386Z,2.05
2023-05-21T15:16:32.411Z,1.80
2023-05-21T15:19:00.397Z,2.35
2023-05-21T15:21:28.402Z,2.10
2023-05-21T15:23:56.385Z,2.03
2023-05-21T15:26:25.601Z,2.10
2023-05-21T15:28:54.904Z,2.00
2023-05-21T15:31:22.904Z,1.85
2023-05-21T15:33:50.788Z,2.20
2023-05-21T15:36:18.701Z,2.20
2023-05-21T15:38:46.786Z,2.17
2023-05-21T15:41:14.675Z,2.05
2023-05-21T15:43:43.401Z,1.90
2023-05-21T15:46:12.932Z,2.20
2023-05-21T15:48:41.311Z,2.47
2023-05-21T15:51:09.573Z,2.65
2023-05-21T15:53:37.640Z,2.28
2023-05-21T15:56:05.808Z,2.08
2023-05-21T15:58:33.870Z,2.05
2023-05-21T16:01:01.856Z,2.40
2023-05-21T16:03:31.224Z,2.00
2023-05-21T16:05:59.149Z,2.03
2023-05-21T16:08:27.162Z,2.03
2023-05-21T16:10:55.246Z,1.88
2023-05-21T16:13:23.167Z,2.10
2023-05-21T16:15:51.771Z,2.00
2023-05-21T16:18:19.654Z,2.17
2023-05-21T16:20:49.444Z,2.70
2023-05-21T16:23:17.401Z,2.13
2023-05-21T16:25:45.347Z,2.95
2023-05-21T16:28:13.466Z,3.00
2023-05-21T16:30:41.385Z,2.20
2023-05-21T16:33:10.058Z,2.33
2023-05-21T16:35:38.362Z,2.30
2023-05-21T16:38:24.248Z,2.28
2023-05-21T16:40:53.556Z,2.50
2023-05-21T16:43:25.464Z,2.50
2023-05-21T16:45:54.049Z,2.58
2023-05-21T16:48:25.499Z,2.17
2023-05-21T16:50:53.448Z,2.20
2023-05-21T16:53:22.723Z,2.45
2023-05-21T16:55:50.736Z,2.30
2023-05-21T16:58:19.108Z,2.40
2023-05-21T17:00:47.413Z,2.67
2023-05-21T17:03:16.049Z,2.35
2023-05-21T17:05:44.401Z,2.38
2023-05-21T17:08:12.597Z,2.25
2023-05-21T17:10:41.990Z,2.15
2023-05-21T17:13:21.618Z,2.30
2023-05-21T17:15:51.611Z,2.58
2023-05-21T17:18:19.577Z,2.72
2023-05-21T17:20:47.580Z,2.42
2023-05-21T17:23:15.715Z,2.70
2023-05-21T17:25:45.026Z,2.60
2023-05-21T17:28:12.905Z,2.60
2023-05-21T17:30:40.948Z,2.63
2023-05-21T17:33:10.385Z,2.70
2023-05-21T17:35:39.004Z,2.60
2023-05-21T17:38:07.496Z,2.95
2023-05-21T17:40:35.619Z,2.58
2023-05-21T17:43:07.331Z,2.70
2023-05-21T17:45:35.985Z,2.80
2023-05-21T17:48:04.524Z,2.60
2023-05-21T17:50:32.577Z,2.53
2023-05-21T17:53:00.817Z,2.55
2023-05-21T17:55:28.785Z,3.30
2023-05-21T17:57:56.904Z,2.80
2023-05-21T18:00:26.738Z,3.47
2023-05-21T18:02:55.159Z,2.63
2023-05-21T18:05:23.690Z,2.70
2023-05-21T18:07:51.564Z,2.90
2023-05-21T18:10:19.451Z,2.60
2023-05-21T18:12:50.379Z,3.00
2023-05-21T18:15:18.538Z,2.92
2023-05-21T18:17:47.976Z,3.10
2023-05-21T18:20:16.476Z,3.00
2023-05-21T18:22:45.632Z,2.88
2023-05-21T18:25:13.501Z,2.75
2023-05-21T18:27:41.400Z,3.13
2023-05-21T18:30:10.666Z,2.58
2023-05-21T18:32:39.542Z,2.70
2023-05-21T18:35:11.979Z,2.50
2023-05-21T18:37:44.780Z,2.63
2023-05-21T18:40:13.860Z,3.08
2023-05-21T18:42:41.869Z,2.90
2023-05-21T18:45:11.218Z,3.10
2023-05-21T18:47:40.423Z,2.88
2023-05-21T18:50:11.945Z,3.17
2023-05-21T18:52:40.376Z,3.35
2023-05-21T18:55:09.151Z,3.83
2023-05-21T18:57:38.175Z,3.92
2023-05-21T19:00:09.496Z,3.63
2023-05-21T19:02:37.743Z,3.58
2023-05-21T19:05:06.576Z,3.42
2023-05-21T19:07:36.322Z,3.38
2023-05-21T19:10:04.463Z,3.08
2023-05-21T19:12:32.413Z,3.00
2023-05-21T19:15:00.426Z,2.97
2023-05-21T19:17:28.397Z,3.13
2023-05-21T19:19:56.801Z,3.15
2023-05-21T19:22:24.984Z,3.30
2023-05-21T19:24:54.393Z,3.20
2023-05-21T19:27:22.311Z,3.28
2023-05-21T19:29:50.216Z,3.08
2023-05-21T19:32:18.195Z,3.40
2023-05-21T19:34:46.890Z,3.97
2023-05-21T19:37:14.966Z,3.70
2023-05-21T19:39:43.501Z,4.10
2023-05-21T19:42:13.179Z,3.97
2023-05-21T19:44:41.372Z,3.50
2023-05-21T19:47:09.538Z,3.55
2023-05-21T19:49:37.696Z,4.00
2023-05-21T19:52:06.245Z,3.95
2023-05-21T19:54:34.215Z,4.20
2023-05-21T19:57:02.256Z,4.40
2023-05-21T19:59:31.703Z,4.00
2023-05-21T20:01:59.695Z,4.13
2023-05-21T20:04:28.170Z,4.80
2023-05-21T20:06:56.133Z,4.30
2023-05-21T20:09:24.096Z,4.33
2023-05-21T20:11:52.535Z,4.20
2023-05-21T20:14:20.799Z,4.30
2023-05-21T20:16:50.347Z,4.20
2023-05-21T20:19:18.679Z,4.30
2023-05-21T20:21:46.796Z,4.77
2023-05-21T20:24:14.922Z,4.57
2023-05-21T20:26:45.091Z,4.03
2023-05-21T20:29:13.112Z,4.87
2023-05-21T20:31:42.035Z,4.20
2023-05-21T20:34:12.405Z,4.27
2023-05-21T20:36:41.515Z,4.60
2023-05-21T20:39:09.661Z,4.20
2023-05-21T20:41:38.768Z,4.00
2023-05-21T20:44:07.084Z,4.23
2023-05-21T20:46:38.567Z,3.50
2023-05-21T20:49:06.880Z,4.00
2023-05-21T20:51:36.191Z,3.40
2023-05-21T20:54:04.080Z,3.57
2023-05-21T20:56:41.929Z,3.47
2023-05-21T20:59:11.998Z,3.47
2023-05-21T21:01:40.744Z,3.73
2023-05-21T21:04:09.395Z,3.70
2023-05-21T21:06:40.545Z,3.70
2023-05-21T21:09:08.624Z,3.77
2023-05-21T21:11:36.955Z,3.50
2023-05-21T21:14:04.955Z,3.60
2023-05-21T21:16:33.228Z,3.47
2023-05-21T21:19:01.586Z,3.30
2023-05-21T21:21:29.687Z,4.00
2023-05-21T21:23:59.050Z,3.27
2023-05-21T21:26:27.272Z,3.70
2023-05-21T21:28:56.304Z,4.00
2023-05-21T21:31:24.741Z,3.60
2023-05-21T21:33:52.795Z,3.50
2023-05-21T21:36:20.826Z,4.00
2023-05-21T21:38:48.756Z,3.93
2023-05-21T21:41:19.464Z,4.40
2023-05-21T21:43:47.472Z,4.10
2023-05-21T21:46:15.501Z,4.10
2023-05-21T21:48:43.491Z,3.90
2023-05-21T21:51:11.671Z,3.80
2023-05-21T21:53:39.543Z,3.83
2023-05-21T21:56:07.722Z,4.03
2023-05-21T21:58:37.023Z,4.67
2023-05-21T22:01:04.982Z,4.80
2023-05-21T22:03:33.751Z,4.70
2023-05-21T22:06:02.000Z,4.20
2023-05-21T22:08:29.930Z,4.53
2023-05-21T22:10:58.869Z,4.40
2023-05-21T22:13:29.196Z,4.00
2023-05-21T22:15:59.355Z,4.50
2023-05-21T22:18:39.405Z,4.47
2023-05-21T22:21:10.028Z,4.63
2023-05-21T22:23:38.578Z,4.80
2023-05-21T22:26:06.737Z,4.93
2023-05-21T22:28:34.804Z,5.23
2023-05-21T22:31:04.298Z,4.37
2023-05-21T22:33:32.454Z,4.73
2023-05-21T22:36:00.464Z,4.67
2023-05-21T22:38:28.418Z,5.13
2023-05-21T22:40:56.352Z,4.93
2023-05-21T22:43:24.328Z,4.80
2023-05-21T22:45:52.258Z,4.97
2023-05-21T22:48:22.625Z,4.90
2023-05-21T22:50:53.414Z,5.00
2023-05-21T22:53:21.594Z,4.90
2023-05-21T22:55:49.608Z,4.77
2023-05-21T22:58:17.663Z,5.17
2023-05-21T23:00:45.648Z,5.20
2023-05-21T23:03:13.653Z,5.27
2023-05-21T23:05:43.172Z,5.60
2023-05-21T23:08:11.267Z,5.40
2023-05-21T23:10:39.447Z,5.57
2023-05-21T23:13:07.642Z,5.47
2023-05-21T23:15:38.755Z,5.37
2023-05-21T23:18:07.723Z,5.27
2023-05-21T23:20:37.153Z,5.03
2023-05-21T23:23:07.075Z,5.80
2023-05-21T23:25:35.418Z,5.77
2023-05-21T23:28:03.361Z,5.80
2023-05-21T23:30:31.266Z,5.07
2023-05-21T23:32:59.288Z,5.80
2023-05-21T23:35:27.346Z,5.87
2023-05-21T23:37:55.301Z,5.87
2023-05-21T23:40:24.591Z,6.33
2023-05-21T23:42:52.530Z,6.00
2023-05-21T23:45:20.557Z,6.20
2023-05-21T23:47:48.503Z,6.53
2023-05-21T23:50:16.592Z,6.87
2023-05-21T23:52:44.462Z,6.83
2023-05-21T23:55:14.688Z,6.70
2023-05-21T23:57:44.115Z,6.90
